Time;durP1;ratioP1;P1;durP2;ratioP2;P2;SDS_P1;SDS_P2;PMS_P1;PMS_P2;Temp;Humidity;BMP_temperature;BMP_pressure;BME280_temperature;BME280_humidity;BME280_pressure;Samples;Min_cycle;Max_cycle;Signal;HPM_P1;HPM_P2
2021/05/17 00:02:07;;;;;;;;;;;8.90;99.90;;;;;;5091302;28;19926;-70
2021/05/17 00:04:34;;;;;;;;;;;8.90;99.90;;;;;;5090786;28;20380;-70
2021/05/17 00:07:00;;;;;;;;;;;8.80;99.90;;;;;;5084530;28;19915;-70
2021/05/17 00:09:26;;;;;;;;;;;8.80;99.90;;;;;;5091103;28;19908;-70
2021/05/17 00:11:52;;;;;;;;;;;8.80;99.90;;;;;;5090864;28;19909;-70
2021/05/17 00:14:18;;;;;;;;;;;8.70;99.90;;;;;;5091138;28;19964;-70
2021/05/17 00:16:44;;;;;;;;;;;8.70;99.90;;;;;;5090120;28;19915;-70
2021/05/17 00:19:10;;;;;;;;;;;8.80;99.90;;;;;;5088446;28;19908;-69
2021/05/17 00:21:36;;;;;;;;;;;8.80;99.90;;;;;;5090199;28;19986;-70
2021/05/17 00:24:03;;;;;;;;;;;8.80;99.90;;;;;;5090876;28;20042;-69
2021/05/17 00:26:28;;;;;;;;;;;8.80;99.90;;;;;;5080915;28;19912;-70
2021/05/17 00:28:54;;;;;;;;;;;8.90;99.90;;;;;;5090621;28;19908;-70
2021/05/17 00:31:19;;;;;;;;;;;8.90;99.90;;;;;;5087507;28;20386;-70
2021/05/17 00:33:45;;;;;;;;;;;8.90;99.90;;;;;;5089627;28;19994;-70
2021/05/17 00:36:11;;;;;;;;;;;9.00;99.90;;;;;;5081833;28;19948;-70
2021/05/17 00:38:37;;;;;;;;;;;9.00;99.90;;;;;;5089346;28;20397;-70
2021/05/17 00:41:02;;;;;;;;;;;9.00;99.90;;;;;;5088871;28;19922;-70
2021/05/17 00:43:36;;;;;;;;;;;9.00;99.90;;;;;;5089913;28;19912;-70
2021/05/17 00:46:02;;;;;;;;;;;9.00;99.90;;;;;;5081516;28;19912;-69
2021/05/17 00:48:28;;;;;;;;;;;9.00;99.90;;;;;;5090500;28;19909;-70
2021/05/17 00:50:54;;;;;;;;;;;9.00;99.90;;;;;;5091198;28;19909;-69
2021/05/17 00:53:20;;;;;;;;;;;9.00;99.90;;;;;;5083745;28;19913;-70
2021/05/17 00:55:46;;;;;;;;;;;8.90;99.90;;;;;;5089536;28;19936;-70
2021/05/17 00:58:11;;;;;;;;;;;9.00;99.90;;;;;;5090876;28;19966;-70
2021/05/17 01:00:37;;;;;;;;;;;9.00;99.90;;;;;;5090744;28;19916;-70
2021/05/17 01:03:03;;;;;;;;;;;9.00;99.90;;;;;;5089167;28;19912;-70
2021/05/17 01:05:29;;;;;;;;;;;9.10;99.90;;;;;;5093451;28;19908;-69
2021/05/17 01:07:54;;;;;;;;;;;9.10;99.90;;;;;;5093214;28;19912;-70
2021/05/17 01:10:21;;;;;;;;;;;9.10;99.90;;;;;;5089112;28;19912;-70
2021/05/17 01:12:47;;;;;;;;;;;9.10;99.90;;;;;;5094218;28;19908;-70
2021/05/17 01:15:14;;;;;;;;;;;9.10;99.90;;;;;;5090836;28;19999;-70
2021/05/17 01:17:40;;;;;;;;;;;9.00;99.90;;;;;;5093433;28;20322;-69
2021/05/17 01:20:07;;;;;;;;;;;9.10;99.90;;;;;;5090335;28;20373;-69
2021/05/17 01:22:53;;;;;;;;;;;9.10;99.90;;;;;;5092403;28;20288;-70
2021/05/17 01:25:20;;;;;;;;;;;9.10;99.90;;;;;;5094162;28;19908;-70
2021/05/17 01:27:46;;;;;;;;;;;9.10;99.90;;;;;;5091621;28;19988;-70
2021/05/17 01:30:11;;;;;;;;;;;9.10;99.90;;;;;;5093773;28;19908;-69
2021/05/17 01:32:38;;;;;;;;;;;9.20;99.90;;;;;;5093977;28;19918;-70
2021/05/17 01:35:03;;;;;;;;;;;9.20;99.90;;;;;;5093682;28;19980;-70
2021/05/17 01:37:32;;;;;;;;;;;9.10;99.90;;;;;;5092676;28;19912;-70
2021/05/17 01:39:58;;;;;;;;;;;9.10;99.90;;;;;;5093557;28;20023;-70
2021/05/17 01:42:24;;;;;;;;;;;9.10;99.90;;;;;;5093661;28;20412;-70
2021/05/17 01:44:50;;;;;;;;;;;9.10;99.90;;;;;;5093269;28;19909;-70
2021/05/17 01:47:16;;;;;;;;;;;9.10;99.90;;;;;;5092285;28;20013;-69
2021/05/17 01:49:43;;;;;;;;;;;9.00;99.90;;;;;;5093271;28;19912;-70
2021/05/17 01:52:09;;;;;;;;;;;9.00;99.90;;;;;;5093479;28;19916;-70
2021/05/17 01:54:38;;;;;;;;;;;9.00;99.90;;;;;;5093300;28;20281;-69
2021/05/17 01:57:04;;;;;;;;;;;9.00;99.90;;;;;;5091937;28;20062;-70
2021/05/17 01:59:30;;;;;;;;;;;8.90;99.90;;;;;;5088804;28;20549;-70
2021/05/17 02:01:56;;;;;;;;;;;8.90;99.90;;;;;;5093164;28;19919;-70
2021/05/17 02:04:23;;;;;;;;;;;8.80;99.90;;;;;;5092914;28;20003;-70
2021/05/17 02:06:49;;;;;;;;;;;8.80;99.90;;;;;;5092271;28;19962;-69
2021/05/17 02:09:16;;;;;;;;;;;8.80;99.90;;;;;;5091606;28;19911;-69
2021/05/17 02:11:42;;;;;;;;;;;8.80;99.90;;;;;;5093000;28;19937;-69
2021/05/17 02:14:08;;;;;;;;;;;8.80;99.90;;;;;;5092860;28;20516;-69
2021/05/17 02:16:33;;;;;;;;;;;8.80;99.90;;;;;;5091638;28;19961;-69
2021/05/17 02:18:59;;;;;;;;;;;8.80;99.90;;;;;;5092677;28;19998;-69
2021/05/17 02:21:24;;;;;;;;;;;8.80;99.90;;;;;;5092681;28;19927;-69
2021/05/17 02:23:50;;;;;;;;;;;8.80;99.90;;;;;;5092627;28;19908;-69
2021/05/17 02:26:16;;;;;;;;;;;8.80;99.90;;;;;;5091808;28;19915;-69
2021/05/17 02:28:41;;;;;;;;;;;8.70;99.90;;;;;;5092852;28;19987;-70
2021/05/17 02:31:08;;;;;;;;;;;8.70;99.90;;;;;;5092390;28;19999;-69
2021/05/17 02:33:34;;;;;;;;;;;8.60;99.90;;;;;;5092253;28;20293;-69
2021/05/17 02:36:00;;;;;;;;;;;8.60;99.90;;;;;;5091402;28;20372;-69
2021/05/17 02:38:25;;;;;;;;;;;8.60;99.90;;;;;;5092320;28;20006;-69
2021/05/17 02:40:51;;;;;;;;;;;8.50;99.90;;;;;;5092312;28;19956;-69
2021/05/17 02:43:19;;;;;;;;;;;8.50;99.90;;;;;;5092336;28;19938;-70
2021/05/17 02:45:45;;;;;;;;;;;8.50;99.90;;;;;;5091027;28;19962;-69
2021/05/17 02:48:11;;;;;;;;;;;8.50;99.90;;;;;;5092541;28;19948;-69
2021/05/17 02:50:39;;;;;;;;;;;8.50;99.90;;;;;;5092187;28;19912;-69
2021/05/17 02:53:23;;;;;;;;;;;8.50;99.90;;;;;;5092318;28;19908;-69
2021/05/17 02:55:49;;;;;;;;;;;8.40;99.90;;;;;;5091370;28;20279;-69
2021/05/17 02:58:17;;;;;;;;;;;8.40;99.90;;;;;;5091505;28;19908;-69
2021/05/17 03:00:44;;;;;;;;;;;8.40;99.90;;;;;;5111912;28;20291;-70
2021/05/17 03:03:10;;;;;;;;;;;8.30;99.90;;;;;;5111830;28;19939;-69
2021/05/17 03:05:37;;;;;;;;;;;8.40;99.90;;;;;;5111263;28;19955;-69
2021/05/17 03:08:04;;;;;;;;;;;8.40;99.90;;;;;;5111199;28;20458;-69
2021/05/17 03:10:30;;;;;;;;;;;8.40;99.90;;;;;;5110485;28;20364;-69
2021/05/17 03:12:57;;;;;;;;;;;8.40;99.90;;;;;;5111786;28;19912;-69
2021/05/17 03:15:25;;;;;;;;;;;8.30;99.90;;;;;;5111223;28;20368;-69
2021/05/17 03:17:51;;;;;;;;;;;8.30;99.90;;;;;;5110593;28;19908;-69
2021/05/17 03:20:17;;;;;;;;;;;8.30;99.90;;;;;;5111411;28;19922;-70
2021/05/17 03:22:43;;;;;;;;;;;8.30;99.90;;;;;;5110790;28;19908;-69
2021/05/17 03:25:09;;;;;;;;;;;8.30;99.90;;;;;;5111874;28;19908;-69
2021/05/17 03:27:35;;;;;;;;;;;8.30;99.90;;;;;;5109246;28;19986;-69
2021/05/17 03:30:00;;;;;;;;;;;8.20;99.90;;;;;;5111369;28;20349;-69
2021/05/17 03:32:26;;;;;;;;;;;8.20;99.90;;;;;;5111732;28;19915;-70
2021/05/17 03:34:52;;;;;;;;;;;8.20;99.90;;;;;;5111784;28;20416;-69
2021/05/17 03:37:18;;;;;;;;;;;8.20;99.90;;;;;;5110725;28;20010;-69
2021/05/17 03:39:47;;;;;;;;;;;8.20;99.90;;;;;;5110666;28;19912;-69
2021/05/17 03:42:13;;;;;;;;;;;8.20;99.90;;;;;;5111499;28;19915;-69
2021/05/17 03:44:38;;;;;;;;;;;8.20;99.90;;;;;;5111353;28;19912;-69
2021/05/17 03:47:04;;;;;;;;;;;8.20;99.90;;;;;;5110668;28;19927;-69
2021/05/17 03:49:29;;;;;;;;;;;8.10;99.90;;;;;;5111481;28;19915;-69
2021/05/17 03:51:55;;;;;;;;;;;8.10;99.90;;;;;;5111958;28;19959;-69
2021/05/17 03:54:20;;;;;;;;;;;8.10;99.90;;;;;;5111362;28;19999;-69
2021/05/17 03:56:46;;;;;;;;;;;8.10;99.90;;;;;;5105467;28;19908;-69
2021/05/17 03:59:14;;;;;;;;;;;8.10;99.90;;;;;;5098907;28;19915;-69
2021/05/17 04:01:40;;;;;;;;;;;8.10;99.90;;;;;;5111397;28;20018;-69
2021/05/17 04:04:05;;;;;;;;;;;8.10;99.90;;;;;;5111358;28;19955;-69
2021/05/17 04:14:38;;;;;;;;;;;8.20;99.90;;;;;;5087343;28;19987;-70
2021/05/17 04:17:04;;;;;;;;;;;8.20;99.90;;;;;;5110370;28;20392;-70
2021/05/17 04:19:29;;;;;;;;;;;8.30;99.90;;;;;;5111146;28;19943;-70
2021/05/17 04:21:55;;;;;;;;;;;8.30;99.90;;;;;;5110055;28;20522;-70
2021/05/17 04:24:20;;;;;;;;;;;8.40;99.90;;;;;;5111173;28;19907;-70
2021/05/17 04:26:46;;;;;;;;;;;8.40;99.90;;;;;;5105017;28;19908;-70
2021/05/17 04:29:12;;;;;;;;;;;8.50;99.90;;;;;;5090578;28;19915;-70
2021/05/17 04:31:37;;;;;;;;;;;8.50;99.90;;;;;;5090556;28;19914;-70
2021/05/17 04:34:03;;;;;;;;;;;8.50;99.90;;;;;;5090742;28;19908;-70
2021/05/17 04:36:31;;;;;;;;;;;8.50;99.90;;;;;;5089577;28;20297;-69
2021/05/17 04:38:58;;;;;;;;;;;8.50;99.90;;;;;;5092812;28;20377;-70
2021/05/17 04:41:23;;;;;;;;;;;8.50;99.90;;;;;;5094909;28;20045;-70
2021/05/17 04:43:49;;;;;;;;;;;8.60;99.90;;;;;;5094983;28;20347;-69
2021/05/17 04:46:14;;;;;;;;;;;8.60;99.90;;;;;;5093197;28;19916;-70
2021/05/17 04:48:49;;;;;;;;;;;8.60;99.90;;;;;;5094009;28;20305;-70
2021/05/17 04:51:18;;;;;;;;;;;8.60;99.90;;;;;;5094492;28;19918;-69
2021/05/17 04:53:44;;;;;;;;;;;8.50;99.90;;;;;;5094433;28;19948;-69
2021/05/17 04:56:09;;;;;;;;;;;8.50;99.90;;;;;;5093456;28;19943;-69
2021/05/17 04:58:35;;;;;;;;;;;8.50;99.90;;;;;;5093623;28;20378;-69
2021/05/17 05:01:00;;;;;;;;;;;8.40;99.90;;;;;;5093944;28;19912;-69
2021/05/17 05:03:26;;;;;;;;;;;8.40;99.90;;;;;;5094128;28;19908;-69
2021/05/17 05:05:51;;;;;;;;;;;8.40;99.90;;;;;;5093214;28;19985;-69
2021/05/17 05:08:17;;;;;;;;;;;8.40;99.90;;;;;;5094276;28;19918;-69
2021/05/17 05:10:42;;;;;;;;;;;8.30;99.90;;;;;;5094189;28;19908;-70
2021/05/17 05:13:08;;;;;;;;;;;8.30;99.90;;;;;;5094094;28;19985;-70
2021/05/17 05:15:33;;;;;;;;;;;8.30;99.90;;;;;;5093294;28;20068;-70
2021/05/17 05:17:59;;;;;;;;;;;8.40;99.90;;;;;;5093270;28;20288;-70
2021/05/17 05:20:24;;;;;;;;;;;8.40;99.90;;;;;;5093807;28;19916;-69
2021/05/17 05:22:50;;;;;;;;;;;8.40;99.90;;;;;;5093901;28;19915;-69
2021/05/17 05:25:17;;;;;;;;;;;8.50;99.90;;;;;;5093732;28;19916;-69
2021/05/17 05:27:46;;;;;;;;;;;8.60;99.90;;;;;;5092354;28;19908;-70
2021/05/17 05:32:49;;;;;;;;;;;8.90;99.90;;;;;;5093717;28;20015;-69
2021/05/17 05:35:15;;;;;;;;;;;9.00;99.90;;;;;;5093738;28;19915;-69
2021/05/17 05:37:40;;;;;;;;;;;9.20;99.90;;;;;;5092443;28;19916;-69
2021/05/17 05:40:06;;;;;;;;;;;9.20;99.90;;;;;;5093624;28;19912;-69
2021/05/17 05:42:32;;;;;;;;;;;9.40;99.90;;;;;;5093649;28;19943;-69
2021/05/17 05:44:57;;;;;;;;;;;9.60;99.90;;;;;;5093017;28;19920;-69
2021/05/17 05:47:23;;;;;;;;;;;9.80;99.90;;;;;;5092178;28;19908;-69
2021/05/17 05:49:49;;;;;;;;;;;10.10;99.90;;;;;;5092865;28;20300;-69
2021/05/17 05:52:15;;;;;;;;;;;10.20;99.90;;;;;;5093901;28;19961;-69
2021/05/17 05:54:41;;;;;;;;;;;10.30;99.90;;;;;;5093266;28;19950;-69
2021/05/17 05:57:08;;;;;;;;;;;10.30;99.90;;;;;;5091841;28;19959;-69
2021/05/17 05:59:33;;;;;;;;;;;10.30;99.90;;;;;;5092686;28;19908;-69
2021/05/17 06:01:59;;;;;;;;;;;10.30;99.90;;;;;;5092929;28;20380;-70
2021/05/17 06:04:25;;;;;;;;;;;10.40;99.90;;;;;;5092658;28;19994;-69
2021/05/17 06:06:50;;;;;;;;;;;10.50;99.90;;;;;;5074363;28;19913;-69
2021/05/17 06:09:16;;;;;;;;;;;10.60;99.90;;;;;;5071956;28;20413;-70
2021/05/17 06:11:41;;;;;;;;;;;10.60;99.90;;;;;;5072678;28;19954;-69
2021/05/17 06:14:07;;;;;;;;;;;10.60;99.90;;;;;;5072775;28;19935;-69
2021/05/17 06:16:34;;;;;;;;;;;10.70;99.90;;;;;;5071575;28;19909;-70
2021/05/17 06:19:01;;;;;;;;;;;10.80;99.90;;;;;;5072672;28;19908;-69
2021/05/17 06:21:29;;;;;;;;;;;10.90;99.90;;;;;;5071769;28;19923;-70
2021/05/17 06:23:57;;;;;;;;;;;10.90;99.90;;;;;;5072448;28;20342;-69
2021/05/17 06:26:23;;;;;;;;;;;10.90;99.90;;;;;;5072453;28;19962;-69
2021/05/17 06:28:49;;;;;;;;;;;10.80;99.90;;;;;;5092270;28;19995;-69
2021/05/17 06:31:16;;;;;;;;;;;10.80;99.90;;;;;;5092447;28;19956;-70
2021/05/17 06:33:42;;;;;;;;;;;10.80;99.90;;;;;;5092513;28;19912;-69
2021/05/17 06:36:10;;;;;;;;;;;10.80;99.90;;;;;;5091586;28;19912;-70
2021/05/17 06:38:39;;;;;;;;;;;10.80;99.90;;;;;;5092389;28;19916;-69
2021/05/17 06:41:05;;;;;;;;;;;10.80;99.90;;;;;;5092455;28;19912;-69
2021/05/17 06:43:32;;;;;;;;;;;10.80;99.90;;;;;;5092589;28;20296;-70
2021/05/17 06:45:57;;;;;;;;;;;10.80;99.90;;;;;;5089320;28;20382;-69
2021/05/17 06:48:23;;;;;;;;;;;10.70;99.90;;;;;;5089065;28;19915;-69
2021/05/17 06:50:48;;;;;;;;;;;10.70;99.90;;;;;;5089425;28;20277;-70
2021/05/17 06:53:14;;;;;;;;;;;10.70;99.90;;;;;;5084608;28;19969;-70
2021/05/17 06:55:54;;;;;;;;;;;10.60;99.90;;;;;;5090921;28;20322;-69
2021/05/17 06:58:33;;;;;;;;;;;10.60;99.90;;;;;;5091278;28;19909;-69
2021/05/17 07:00:58;;;;;;;;;;;10.50;99.90;;;;;;5091895;28;20022;-70
2021/05/17 07:03:24;;;;;;;;;;;10.40;99.90;;;;;;5092241;28;20002;-69
2021/05/17 07:05:53;;;;;;;;;;;10.40;99.90;;;;;;5091180;28;20361;-70
2021/05/17 07:13:47;;;;;;;;;;;10.10;99.90;;;;;;5091870;28;19985;-69
2021/05/17 07:16:13;;;;;;;;;;;10.00;99.90;;;;;;5090467;28;20389;-69
2021/05/17 07:18:38;;;;;;;;;;;9.80;99.90;;;;;;5091693;28;19915;-69
2021/05/17 07:23:42;;;;;;;;;;;9.70;99.90;;;;;;5091299;28;19961;-69
2021/05/17 07:26:13;;;;;;;;;;;9.80;99.90;;;;;;5090503;28;20083;-70
2021/05/17 07:28:39;;;;;;;;;;;10.10;99.90;;;;;;5090883;28;19915;-70
2021/05/17 07:31:06;;;;;;;;;;;10.50;99.90;;;;;;5091306;28;19908;-70
2021/05/17 07:33:32;;;;;;;;;;;11.00;99.90;;;;;;5089818;28;19908;-69
2021/05/17 07:35:58;;;;;;;;;;;11.60;99.90;;;;;;5090358;28;20348;-68
2021/05/17 07:38:29;;;;;;;;;;;11.90;99.90;;;;;;5091199;28;19923;-70
2021/05/17 07:40:55;;;;;;;;;;;12.00;99.90;;;;;;5091532;28;20292;-69
2021/05/17 07:43:22;;;;;;;;;;;11.90;99.90;;;;;;5090264;28;20335;-70
2021/05/17 07:45:47;;;;;;;;;;;11.90;99.90;;;;;;5090015;28;19912;-70
2021/05/17 07:48:14;;;;;;;;;;;11.90;99.90;;;;;;5090598;28;20006;-69
2021/05/17 07:50:39;;;;;;;;;;;11.80;99.90;;;;;;5091210;28;19908;-69
2021/05/17 07:53:05;;;;;;;;;;;11.70;99.90;;;;;;5091078;28;19961;-69
2021/05/17 07:55:30;;;;;;;;;;;11.60;99.90;;;;;;5091061;28;19998;-69
2021/05/17 07:57:56;;;;;;;;;;;11.80;99.90;;;;;;5089822;28;20259;-69
2021/05/17 08:00:21;;;;;;;;;;;11.90;99.90;;;;;;5090628;28;20331;-70
2021/05/17 08:02:47;;;;;;;;;;;12.10;99.90;;;;;;5090906;28;20430;-69
2021/05/17 08:05:12;;;;;;;;;;;12.60;99.90;;;;;;5081740;28;19908;-70
2021/05/17 08:07:38;;;;;;;;;;;13.10;99.90;;;;;;5077983;28;20308;-69
2021/05/17 08:10:04;;;;;;;;;;;13.50;99.90;;;;;;5078505;28;20050;-69
2021/05/17 08:12:30;;;;;;;;;;;13.90;99.90;;;;;;5083624;28;19908;-70
2021/05/17 08:14:57;;;;;;;;;;;14.40;99.90;;;;;;5091476;28;19912;-69
2021/05/17 08:17:22;;;;;;;;;;;14.70;99.90;;;;;;5088612;28;19908;-69
2021/05/17 08:19:48;;;;;;;;;;;15.00;99.90;;;;;;5094876;28;20375;-69
2021/05/17 08:22:13;;;;;;;;;;;15.00;99.90;;;;;;5089607;28;19929;-69
2021/05/17 08:24:39;;;;;;;;;;;15.30;99.90;;;;;;5090299;28;20300;-69
2021/05/17 08:27:05;;;;;;;;;;;15.50;99.90;;;;;;5077444;28;19931;-69
2021/05/17 08:29:35;;;;;;;;;;;15.90;99.90;;;;;;5105760;28;19914;-70
2021/05/17 08:32:02;;;;;;;;;;;16.00;99.90;;;;;;5090312;28;19912;-69
2021/05/17 08:34:28;;;;;;;;;;;15.90;99.90;;;;;;5090742;28;19957;-68
2021/05/17 08:36:55;;;;;;;;;;;15.60;99.90;;;;;;5090538;28;20276;-75
2021/05/17 08:39:21;;;;;;;;;;;15.30;99.90;;;;;;5085421;28;19958;-75
2021/05/17 08:41:46;;;;;;;;;;;15.20;99.90;;;;;;5084672;28;19916;-75
2021/05/17 08:44:13;;;;;;;;;;;15.10;99.90;;;;;;5090743;28;19954;-75
2021/05/17 08:46:46;;;;;;;;;;;15.20;99.90;;;;;;5079677;28;19908;-75
2021/05/17 08:49:12;;;;;;;;;;;15.30;99.90;;;;;;5092706;28;20272;-75
2021/05/17 08:51:37;;;;;;;;;;;15.40;99.90;;;;;;5084515;28;19965;-75
2021/05/17 08:54:05;;;;;;;;;;;15.20;99.90;;;;;;5093867;28;20334;-75
2021/05/17 08:56:31;;;;;;;;;;;14.90;99.90;;;;;;5080461;28;20007;-75
2021/05/17 08:58:57;;;;;;;;;;;14.70;99.90;;;;;;5082123;28;20353;-75
2021/05/17 09:01:23;;;;;;;;;;;14.50;99.90;;;;;;5093438;28;19939;-75
2021/05/17 09:03:55;;;;;;;;;;;14.30;99.90;;;;;;5086681;28;19971;-75
2021/05/17 09:06:23;;;;;;;;;;;14.10;99.90;;;;;;5085565;28;19916;-69
2021/05/17 09:08:48;;;;;;;;;;;14.00;99.90;;;;;;5089052;28;20003;-69
2021/05/17 09:11:28;;;;;;;;;;;13.90;99.90;;;;;;5091032;28;20008;-72
2021/05/17 09:14:05;;;;;;;;;;;13.70;99.90;;;;;;5089748;28;19961;-70
2021/05/17 09:16:42;;;;;;;;;;;13.50;99.90;;;;;;5082248;28;19915;-70
2021/05/17 09:19:11;;;;;;;;;;;13.30;99.90;;;;;;5092136;28;19908;-70
2021/05/17 09:21:54;;;;;;;;;;;12.90;99.90;;;;;;5083606;28;19977;-70
2021/05/17 09:24:38;;;;;;;;;;;12.50;99.90;;;;;;5082599;28;19908;-69
2021/05/17 09:27:04;;;;;;;;;;;12.10;99.90;;;;;;5086047;28;19908;-69
2021/05/17 09:29:34;;;;;;;;;;;11.90;99.90;;;;;;5088064;28;19909;-70
2021/05/17 09:32:08;;;;;;;;;;;12.00;99.90;;;;;;5092349;28;19920;-70
2021/05/17 09:34:34;;;;;;;;;;;12.40;99.90;;;;;;5083351;28;20796;-70
2021/05/17 09:37:07;;;;;;;;;;;12.80;99.90;;;;;;5098134;28;20007;-69
2021/05/17 09:39:33;;;;;;;;;;;13.00;99.90;;;;;;5092223;28;19978;-70
2021/05/17 09:41:58;;;;;;;;;;;13.30;99.90;;;;;;5078396;28;20373;-70
2021/05/17 09:44:27;;;;;;;;;;;13.60;99.90;;;;;;5084909;28;19924;-69
2021/05/17 09:46:56;;;;;;;;;;;13.70;99.90;;;;;;5085860;28;19915;-69
2021/05/17 09:49:35;;;;;;;;;;;13.70;99.90;;;;;;5081194;28;20262;-69
2021/05/17 09:52:09;;;;;;;;;;;13.40;99.90;;;;;;5083980;28;19915;-70
2021/05/17 09:54:48;;;;;;;;;;;13.30;99.90;;;;;;5080823;28;20655;-70
2021/05/17 09:57:18;;;;;;;;;;;13.20;99.90;;;;;;5082825;28;19930;-70
2021/05/17 09:59:45;;;;;;;;;;;13.20;99.90;;;;;;5083352;28;20003;-69
2021/05/17 10:02:25;;;;;;;;;;;13.30;99.90;;;;;;5082334;28;19934;-69
2021/05/17 10:04:51;;;;;;;;;;;13.60;99.90;;;;;;5083245;28;20365;-70
2021/05/17 10:07:16;;;;;;;;;;;13.90;99.90;;;;;;5080691;28;19958;-69
2021/05/17 10:09:42;;;;;;;;;;;14.00;99.90;;;;;;5088304;28;19961;-69
2021/05/17 10:12:07;;;;;;;;;;;13.90;99.90;;;;;;5092041;28;20293;-69
2021/05/17 10:14:33;;;;;;;;;;;13.60;99.90;;;;;;5079191;28;19940;-70
2021/05/17 10:16:58;;;;;;;;;;;13.30;99.90;;;;;;5083295;28;19951;-69
2021/05/17 10:19:24;;;;;;;;;;;13.00;99.90;;;;;;5085149;28;19923;-69
2021/05/17 10:21:49;;;;;;;;;;;12.90;99.90;;;;;;5091193;28;19912;-69
2021/05/17 10:24:15;;;;;;;;;;;12.90;99.90;;;;;;5083664;28;19908;-69
2021/05/17 10:26:40;;;;;;;;;;;12.90;99.90;;;;;;5086204;28;19915;-69
2021/05/17 10:29:06;;;;;;;;;;;12.80;99.90;;;;;;5091913;28;20284;-69
2021/05/17 10:31:33;;;;;;;;;;;12.90;99.90;;;;;;5092016;28;19908;-69
2021/05/17 10:34:00;;;;;;;;;;;12.90;99.90;;;;;;5087207;28;19908;-69
2021/05/17 10:36:44;;;;;;;;;;;12.80;99.90;;;;;;5080697;28;19911;-69
2021/05/17 10:39:13;;;;;;;;;;;12.70;99.90;;;;;;5079243;28;20409;-69
2021/05/17 10:42:00;;;;;;;;;;;12.70;99.90;;;;;;5081714;28;19915;-70
2021/05/17 10:46:51;;;;;;;;;;;13.30;99.90;;;;;;5076696;28;20015;-69
2021/05/17 10:49:25;;;;;;;;;;;13.50;99.90;;;;;;5086423;28;20356;-69
2021/05/17 10:52:16;;;;;;;;;;;13.90;99.90;;;;;;5077839;28;19919;-69
2021/05/17 10:54:43;;;;;;;;;;;14.00;99.90;;;;;;5072901;28;20364;-69
2021/05/17 10:57:24;;;;;;;;;;;14.00;99.90;;;;;;5085667;28;19943;-70
2021/05/17 11:02:38;;;;;;;;;;;13.70;99.90;;;;;;5091660;28;19915;-70
2021/05/17 11:05:11;;;;;;;;;;;14.00;99.90;;;;;;5092194;28;20002;-70
2021/05/17 11:07:50;;;;;;;;;;;14.80;99.90;;;;;;5080536;28;19909;-69
2021/05/17 11:10:17;;;;;;;;;;;15.40;99.90;;;;;;5091778;28;19991;-70
2021/05/17 11:12:51;;;;;;;;;;;15.50;99.90;;;;;;5082808;28;19912;-70
2021/05/17 11:15:19;;;;;;;;;;;15.30;99.90;;;;;;5080500;28;20218;-70
2021/05/17 11:17:53;;;;;;;;;;;14.80;99.90;;;;;;5081862;28;19944;-70
2021/05/17 11:20:37;;;;;;;;;;;14.50;99.90;;;;;;5078187;28;19924;-70
2021/05/17 11:23:03;;;;;;;;;;;14.20;99.90;;;;;;5086274;28;19929;-69
2021/05/17 11:25:49;;;;;;;;;;;14.00;99.90;;;;;;5089529;28;19986;-69
2021/05/17 11:28:15;;;;;;;;;;;13.90;99.90;;;;;;5082878;28;19951;-69
2021/05/17 11:30:41;;;;;;;;;;;13.90;99.90;;;;;;5085781;28;19993;-69
2021/05/17 11:33:11;;;;;;;;;;;13.70;99.90;;;;;;5081459;28;19916;-70
2021/05/17 11:35:36;;;;;;;;;;;13.60;99.90;;;;;;5088864;28;19908;-69
2021/05/17 11:38:05;;;;;;;;;;;13.50;99.90;;;;;;5089319;28;19916;-69
2021/05/17 11:40:31;;;;;;;;;;;13.40;99.90;;;;;;5080401;28;19919;-69
2021/05/17 11:43:00;;;;;;;;;;;13.60;99.90;;;;;;5087611;28;19909;-70
2021/05/17 11:45:26;;;;;;;;;;;13.60;99.90;;;;;;5083713;28;19908;-69
2021/05/17 11:47:52;;;;;;;;;;;13.60;99.90;;;;;;5085421;28;20135;-70
2021/05/17 11:50:19;;;;;;;;;;;13.80;99.90;;;;;;5077271;28;19935;-70
2021/05/17 11:52:46;;;;;;;;;;;13.90;99.90;;;;;;5081032;28;20004;-69
2021/05/17 11:55:12;;;;;;;;;;;14.20;99.90;;;;;;5088810;28;19914;-69
2021/05/17 11:57:42;;;;;;;;;;;14.60;99.90;;;;;;5077337;28;20356;-70
2021/05/17 12:00:08;;;;;;;;;;;15.00;99.90;;;;;;5084923;28;19916;-70
2021/05/17 12:02:34;;;;;;;;;;;15.50;99.90;;;;;;5081381;28;20228;-70
2021/05/17 12:05:00;;;;;;;;;;;15.80;99.90;;;;;;5085464;28;20365;-69
2021/05/17 12:07:25;;;;;;;;;;;15.90;99.90;;;;;;5083447;28;19912;-71
2021/05/17 12:09:52;;;;;;;;;;;15.80;99.90;;;;;;5084347;28;19944;-69
2021/05/17 12:12:24;;;;;;;;;;;15.70;99.90;;;;;;5087511;28;19916;-70
2021/05/17 12:14:51;;;;;;;;;;;15.90;99.90;;;;;;5088043;28;19948;-70
2021/05/17 12:17:20;;;;;;;;;;;16.40;99.90;;;;;;5078075;28;19919;-70
2021/05/17 12:19:59;;;;;;;;;;;16.70;99.90;;;;;;5087026;28;19908;-70
2021/05/17 12:22:36;;;;;;;;;;;17.10;99.90;;;;;;5081418;28;20037;-70
2021/05/17 12:25:09;;;;;;;;;;;17.30;99.90;;;;;;5084577;28;19908;-70
2021/05/17 12:27:35;;;;;;;;;;;17.20;99.90;;;;;;5081351;28;19912;-70
2021/05/17 12:30:00;;;;;;;;;;;17.00;99.90;;;;;;5079810;28;20414;-70
2021/05/17 12:32:32;;;;;;;;;;;17.10;99.90;;;;;;5077814;28;19908;-70
2021/05/17 12:34:59;;;;;;;;;;;17.30;99.90;;;;;;5078376;28;19996;-70
2021/05/17 12:37:26;;;;;;;;;;;17.40;99.90;;;;;;5080041;28;19923;-70
2021/05/17 12:40:10;;;;;;;;;;;17.30;99.90;;;;;;5089777;28;19916;-70
2021/05/17 12:42:36;;;;;;;;;;;17.20;99.90;;;;;;5090369;28;20380;-70
2021/05/17 12:45:05;;;;;;;;;;;17.50;99.90;;;;;;5085020;28;19909;-70
2021/05/17 12:47:41;;;;;;;;;;;17.60;99.90;;;;;;5076735;28;19916;-70
2021/05/17 12:50:36;;;;;;;;;;;17.60;98.70;;;;;;5080067;28;19908;-70
2021/05/17 12:53:09;;;;;;;;;;;17.80;98.90;;;;;;5073562;28;19914;-70
2021/05/17 12:55:39;;;;;;;;;;;18.20;97.30;;;;;;5079765;28;20003;-70
2021/05/17 12:58:05;;;;;;;;;;;18.00;96.90;;;;;;5075489;28;19928;-70
2021/05/17 13:00:44;;;;;;;;;;;17.50;96.70;;;;;;5083776;28;19913;-70
2021/05/17 13:03:13;;;;;;;;;;;16.80;97.20;;;;;;5085936;28;20151;-70
2021/05/17 13:05:55;;;;;;;;;;;16.20;97.80;;;;;;5090242;28;20008;-69
2021/05/17 13:08:22;;;;;;;;;;;15.60;98.80;;;;;;5113759;28;20406;-70
2021/05/17 13:10:53;;;;;;;;;;;15.40;99.90;;;;;;5114307;28;19994;-70
2021/05/17 13:13:19;;;;;;;;;;;15.50;99.90;;;;;;5112509;28;19914;-70
2021/05/17 13:15:57;;;;;;;;;;;16.20;99.90;;;;;;5096907;28;20304;-70
2021/05/17 13:18:28;;;;;;;;;;;16.90;99.90;;;;;;5092984;28;19954;-70
2021/05/17 13:21:04;;;;;;;;;;;17.60;98.80;;;;;;5081041;28;19916;-70
2021/05/17 13:23:48;;;;;;;;;;;17.90;98.00;;;;;;5091533;28;19908;-70
2021/05/17 13:31:48;;;;;;;;;;;16.90;98.10;;;;;;5093809;28;19947;-70
2021/05/17 13:34:13;;;;;;;;;;;16.60;98.40;;;;;;5093271;28;20313;-70
2021/05/17 13:36:39;;;;;;;;;;;16.50;99.50;;;;;;5092188;28;19915;-70
2021/05/17 13:39:04;;;;;;;;;;;16.40;99.60;;;;;;5093082;28;20223;-71
2021/05/17 13:41:30;;;;;;;;;;;16.30;99.50;;;;;;5093141;28;19912;-70
2021/05/17 13:43:55;;;;;;;;;;;16.00;98.50;;;;;;5093389;28;20415;-70
2021/05/17 13:46:24;;;;;;;;;;;15.60;99.20;;;;;;5086622;28;19929;-70
2021/05/17 13:48:51;;;;;;;;;;;15.70;99.90;;;;;;5113010;28;20279;-70
2021/05/17 13:51:18;;;;;;;;;;;16.10;98.80;;;;;;5096513;28;19913;-70
2021/05/17 13:53:43;;;;;;;;;;;16.70;99.90;;;;;;5092797;28;19908;-71
2021/05/17 13:56:09;;;;;;;;;;;17.30;98.00;;;;;;5085551;28;19931;-70
2021/05/17 13:58:38;;;;;;;;;;;17.60;98.50;;;;;;5085752;28;19952;-70
2021/05/17 14:01:03;;;;;;;;;;;17.90;97.70;;;;;;5084299;28;19913;-70
2021/05/17 14:03:29;;;;;;;;;;;17.80;96.90;;;;;;5089342;28;19909;-70
2021/05/17 14:05:54;;;;;;;;;;;17.10;99.20;;;;;;5092035;28;20418;-69
2021/05/17 14:08:20;;;;;;;;;;;15.80;99.90;;;;;;5091389;28;19947;-70
2021/05/17 14:10:45;;;;;;;;;;;14.30;99.90;;;;;;5088708;28;19916;-70
2021/05/17 14:13:11;;;;;;;;;;;13.30;99.90;;;;;;5091800;28;19912;-70
2021/05/17 14:15:37;;;;;;;;;;;12.70;99.90;;;;;;5080777;28;19909;-70
2021/05/17 14:18:03;;;;;;;;;;;12.50;99.90;;;;;;5084041;28;19978;-70
2021/05/17 14:20:28;;;;;;;;;;;12.20;99.90;;;;;;5092481;28;20360;-70
2021/05/17 14:22:54;;;;;;;;;;;12.10;99.90;;;;;;5091669;28;19907;-70
2021/05/17 14:25:19;;;;;;;;;;;12.20;99.90;;;;;;5075122;28;20439;-70
2021/05/17 14:27:45;;;;;;;;;;;12.80;99.90;;;;;;5082754;28;19908;-70
2021/05/17 14:30:13;;;;;;;;;;;13.20;99.90;;;;;;5072069;28;19909;-70
2021/05/17 14:32:39;;;;;;;;;;;13.50;99.90;;;;;;5088899;28;19953;-70
2021/05/17 14:35:05;;;;;;;;;;;13.60;99.90;;;;;;5111323;28;19991;-70
2021/05/17 14:37:31;;;;;;;;;;;13.50;99.90;;;;;;5086071;28;19916;-70
2021/05/17 14:39:56;;;;;;;;;;;13.20;99.90;;;;;;5092232;28;20129;-70
2021/05/17 14:42:22;;;;;;;;;;;13.20;99.90;;;;;;5092131;28;19908;-70
2021/05/17 14:44:49;;;;;;;;;;;13.20;99.90;;;;;;5088455;28;19919;-70
2021/05/17 14:47:14;;;;;;;;;;;13.70;99.90;;;;;;5086133;28;20296;-70
2021/05/17 14:49:42;;;;;;;;;;;14.20;99.90;;;;;;5085917;28;19912;-70
2021/05/17 14:52:07;;;;;;;;;;;14.50;99.90;;;;;;5083643;28;19995;-70
2021/05/17 14:54:33;;;;;;;;;;;14.90;99.90;;;;;;5089439;28;20000;-70